Time;durP1;ratioP1;P1;durP2;ratioP2;P2;SDS_P1;SDS_P2;PMS_P1;PMS_P2;Temp;Humidity;BMP_temperature;BMP_pressure;BME280_temperature;BME280_humidity;BME280_pressure;Samples;Min_cycle;Max_cycle;Signal;HPM_P1;HPM_P2
2022/03/11 00:00:56;;;;;;;16.27;6.10;;;;;;;;;;5085481;28;20396;-69
2022/03/11 00:03:21;;;;;;;21.50;9.53;;;;;;;;;;5086646;28;20020;-69
2022/03/11 00:05:47;;;;;;;19.17;8.00;;;;;;;;;;5085412;28;20057;-69
2022/03/11 00:08:12;;;;;;;24.70;9.67;;;;;;;;;;5086076;28;20027;-69
2022/03/11 00:10:38;;;;;;;18.27;7.63;;;;;;;;;;5086009;28;20060;-69
2022/03/11 00:13:03;;;;;;;20.83;7.57;;;;;;;;;;5085597;28;20149;-69
2022/03/11 00:15:28;;;;;;;21.17;8.00;;;;;;;;;;5086032;28;20024;-69
2022/03/11 00:17:53;;;;;;;19.33;7.30;;;;;;;;;;5086166;28;20019;-69
2022/03/11 00:20:20;;;;;;;23.40;7.67;;;;;;;;;;5086342;28;20027;-69
2022/03/11 00:22:46;;;;;;;19.33;8.00;;;;;;;;;;5087194;28;20042;-69
2022/03/11 00:25:11;;;;;;;22.63;8.30;;;;;;;;;;5085432;28;20609;-70
2022/03/11 00:27:37;;;;;;;18.17;7.97;;;;;;;;;;5083080;28;20052;-69
2022/03/11 00:30:03;;;;;;;22.43;6.70;;;;;;;;;;5086970;28;20081;-69
2022/03/11 00:32:28;;;;;;;19.23;7.80;;;;;;;;;;5099303;28;20020;-69
2022/03/11 00:34:53;;;;;;;23.53;8.63;;;;;;;;;;5086212;28;20425;-69
2022/03/11 00:37:18;;;;;;;15.70;6.70;;;;;;;;;;5085925;28;20573;-69
2022/03/11 00:39:44;;;;;;;19.40;7.80;;;;;;;;;;5092297;28;20763;-69
2022/03/11 00:42:09;;;;;;;19.60;7.63;;;;;;;;;;5093602;28;20039;-69
2022/03/11 00:44:35;;;;;;;18.37;7.63;;;;;;;;;;5098845;28;20065;-69
2022/03/11 00:47:00;;;;;;;18.67;7.57;;;;;;;;;;5086496;28;20042;-69
2022/03/11 00:49:26;;;;;;;17.30;7.37;;;;;;;;;;5085507;28;20039;-69
2022/03/11 00:51:51;;;;;;;18.30;6.97;;;;;;;;;;5085271;28;20120;-69
2022/03/11 00:54:16;;;;;;;16.13;7.23;;;;;;;;;;5085514;28;20031;-69
2022/03/11 00:56:41;;;;;;;20.60;8.10;;;;;;;;;;5084913;28;20110;-69
2022/03/11 00:59:06;;;;;;;19.53;8.00;;;;;;;;;;5084876;28;20031;-69
2022/03/11 01:01:32;;;;;;;17.87;7.97;;;;;;;;;;5084971;28;20769;-69
2022/03/11 01:03:57;;;;;;;19.07;7.23;;;;;;;;;;5085298;28;20028;-69
2022/03/11 01:06:22;;;;;;;13.87;6.10;;;;;;;;;;5085091;28;20031;-69
2022/03/11 01:08:48;;;;;;;21.47;6.90;;;;;;;;;;5085327;28;20024;-69
2022/03/11 01:11:13;;;;;;;17.27;6.60;;;;;;;;;;5084751;28;20051;-69
2022/03/11 01:13:38;;;;;;;21.80;7.33;;;;;;;;;;5085177;28;20518;-69
2022/03/11 01:16:04;;;;;;;19.87;8.00;;;;;;;;;;5084894;28;20077;-69
2022/03/11 01:18:29;;;;;;;21.43;8.07;;;;;;;;;;5084811;28;20063;-69
2022/03/11 01:20:56;;;;;;;18.93;6.50;;;;;;;;;;5085344;28;20401;-69
2022/03/11 01:23:21;;;;;;;19.27;7.47;;;;;;;;;;5084931;28;20020;-69
2022/03/11 01:25:46;;;;;;;13.90;6.13;;;;;;;;;;5079610;28;20107;-69
2022/03/11 01:28:13;;;;;;;15.20;6.03;;;;;;;;;;5084495;28;20032;-69
2022/03/11 01:30:39;;;;;;;20.17;7.60;;;;;;;;;;5084550;28;20098;-69
2022/03/11 01:33:04;;;;;;;14.97;6.77;;;;;;;;;;5084925;28;20040;-69
2022/03/11 01:35:29;;;;;;;15.90;6.07;;;;;;;;;;5084985;28;20027;-69
2022/03/11 01:37:55;;;;;;;14.00;6.07;;;;;;;;;;5080276;28;20027;-71
2022/03/11 01:40:21;;;;;;;17.40;7.53;;;;;;;;;;5082519;28;20054;-71
2022/03/11 01:42:46;;;;;;;17.37;5.93;;;;;;;;;;5084272;28;20004;-71
2022/03/11 01:45:11;;;;;;;14.10;6.53;;;;;;;;;;5084750;28;20038;-71
2022/03/11 01:47:36;;;;;;;19.07;7.17;;;;;;;;;;5084495;28;20032;-71
2022/03/11 01:50:03;;;;;;;14.40;5.93;;;;;;;;;;5078158;28;20044;-71
2022/03/11 01:52:28;;;;;;;17.47;6.53;;;;;;;;;;5084083;28;20741;-71
2022/03/11 01:54:53;;;;;;;15.07;5.90;;;;;;;;;;5084137;28;20038;-71
2022/03/11 01:57:19;;;;;;;18.80;6.83;;;;;;;;;;5083754;28;20028;-71
2022/03/11 01:59:44;;;;;;;21.93;6.60;;;;;;;;;;5083710;28;20063;-72
2022/03/11 02:02:09;;;;;;;12.07;6.23;;;;;;;;;;5084419;28;20047;-71
2022/03/11 02:04:35;;;;;;;15.43;6.23;;;;;;;;;;5085638;22;21954;-67
2022/03/11 02:07:00;;;;;;;20.17;6.13;;;;;;;;;;5060663;28;20616;-69
2022/03/11 02:09:26;;;;;;;14.33;6.20;;;;;;;;;;5060257;28;20036;-69
2022/03/11 02:11:52;;;;;;;14.03;5.70;;;;;;;;;;5054705;28;20021;-69
2022/03/11 02:14:17;;;;;;;15.60;7.07;;;;;;;;;;5048976;28;20025;-69
2022/03/11 02:16:42;;;;;;;14.73;6.27;;;;;;;;;;5061116;28;20079;-69
2022/03/11 02:19:08;;;;;;;15.77;5.27;;;;;;;;;;5059888;28;20031;-69
2022/03/11 02:21:44;;;;;;;17.73;6.53;;;;;;;;;;5063030;28;20020;-69
2022/03/11 02:24:09;;;;;;;18.03;7.07;;;;;;;;;;5064922;28;20099;-69
2022/03/11 02:26:35;;;;;;;18.70;7.00;;;;;;;;;;5064365;28;20099;-69
2022/03/11 02:29:00;;;;;;;14.50;6.20;;;;;;;;;;5064167;28;20091;-69
2022/03/11 02:31:27;;;;;;;12.33;5.83;;;;;;;;;;5064483;28;20036;-69
2022/03/11 02:33:52;;;;;;;13.63;5.10;;;;;;;;;;5064505;28;20021;-69
2022/03/11 02:36:20;;;;;;;17.23;6.43;;;;;;;;;;5057130;28;20036;-69
2022/03/11 02:38:45;;;;;;;14.43;5.90;;;;;;;;;;5048431;28;20048;-67
2022/03/11 02:41:11;;;;;;;15.07;6.63;;;;;;;;;;5064264;28;20419;-67
2022/03/11 02:43:36;;;;;;;15.53;6.53;;;;;;;;;;5063887;28;20044;-70
2022/03/11 02:46:02;;;;;;;15.13;5.90;;;;;;;;;;5063376;28;20103;-70
2022/03/11 02:48:27;;;;;;;16.57;6.37;;;;;;;;;;5060145;28;20106;-67
2022/03/11 02:50:52;;;;;;;14.83;5.43;;;;;;;;;;5064508;28;20365;-67
2022/03/11 02:53:17;;;;;;;14.40;6.57;;;;;;;;;;5063513;28;20028;-67
2022/03/11 02:55:43;;;;;;;16.17;6.27;;;;;;;;;;5063939;28;20527;-68
2022/03/11 02:58:08;;;;;;;18.53;7.27;;;;;;;;;;5046881;28;20029;-68
2022/03/11 03:00:33;;;;;;;19.37;6.63;;;;;;;;;;5045659;28;20388;-68
2022/03/11 03:02:59;;;;;;;17.53;6.70;;;;;;;;;;5044098;28;20653;-67
2022/03/11 03:05:24;;;;;;;14.73;6.63;;;;;;;;;;5060557;28;20059;-68
2022/03/11 03:07:49;;;;;;;16.57;6.60;;;;;;;;;;5060394;28;20473;-68
2022/03/11 03:10:14;;;;;;;20.53;7.37;;;;;;;;;;5059868;28;20041;-68
2022/03/11 03:12:40;;;;;;;16.67;6.80;;;;;;;;;;5064110;28;20035;-67
2022/03/11 03:15:06;;;;;;;16.90;6.33;;;;;;;;;;5063412;28;20029;-68
2022/03/11 03:17:31;;;;;;;15.80;5.13;;;;;;;;;;5064069;28;20020;-68
2022/03/11 03:19:56;;;;;;;17.30;6.50;;;;;;;;;;5052953;28;20025;-69
2022/03/11 03:22:21;;;;;;;16.30;6.23;;;;;;;;;;5043633;28;20021;-68
2022/03/11 03:24:47;;;;;;;13.60;5.20;;;;;;;;;;5055593;28;20039;-68
2022/03/11 03:27:13;;;;;;;18.03;5.47;;;;;;;;;;5063444;28;20027;-67
2022/03/11 03:29:38;;;;;;;15.03;6.43;;;;;;;;;;5063301;28;20045;-68
2022/03/11 03:32:03;;;;;;;17.43;6.83;;;;;;;;;;5060579;28;20097;-67
2022/03/11 03:34:31;;;;;;;15.50;6.03;;;;;;;;;;5053284;28;20055;-67
2022/03/11 03:36:57;;;;;;;18.40;7.30;;;;;;;;;;5059972;28;20021;-68
2022/03/11 03:39:23;;;;;;;14.40;5.80;;;;;;;;;;5063241;28;20054;-68
2022/03/11 03:41:48;;;;;;;12.43;5.40;;;;;;;;;;5050012;28;20017;-68
2022/03/11 03:44:13;;;;;;;29.13;8.17;;;;;;;;;;5062119;28;20500;-68
2022/03/11 03:46:38;;;;;;;16.53;6.53;;;;;;;;;;5063366;28;20164;-68
2022/03/11 03:49:03;;;;;;;17.83;5.83;;;;;;;;;;5061184;28;20036;-67
2022/03/11 03:51:29;;;;;;;14.87;6.07;;;;;;;;;;5061436;28;20056;-67
2022/03/11 03:53:54;;;;;;;22.80;6.90;;;;;;;;;;5059844;28;20040;-67
2022/03/11 03:56:20;;;;;;;12.37;5.43;;;;;;;;;;5051746;28;20436;-67
2022/03/11 03:58:45;;;;;;;15.03;6.63;;;;;;;;;;5047399;28;20389;-67
2022/03/11 04:01:10;;;;;;;16.73;6.77;;;;;;;;;;5061254;28;20029;-68
2022/03/11 04:03:35;;;;;;;16.57;5.73;;;;;;;;;;5059636;28;20033;-68
2022/03/11 04:06:01;;;;;;;14.80;5.43;;;;;;;;;;5051629;28;20042;-68
2022/03/11 04:08:27;;;;;;;14.43;5.93;;;;;;;;;;5043802;28;20116;-68
2022/03/11 04:10:52;;;;;;;17.77;6.00;;;;;;;;;;5062643;28;20020;-68
2022/03/11 04:13:17;;;;;;;17.50;5.90;;;;;;;;;;5062886;28;20036;-68
2022/03/11 04:15:42;;;;;;;15.03;5.60;;;;;;;;;;5062440;28;20175;-68
2022/03/11 04:18:08;;;;;;;17.47;6.23;;;;;;;;;;5059552;28;20032;-68
2022/03/11 04:20:33;;;;;;;16.33;6.83;;;;;;;;;;5061773;28;20032;-68
2022/03/11 04:22:58;;;;;;;20.23;7.30;;;;;;;;;;5062324;28;20653;-68
2022/03/11 04:25:23;;;;;;;18.83;6.97;;;;;;;;;;5062084;28;20063;-68
2022/03/11 04:27:49;;;;;;;18.20;6.97;;;;;;;;;;5061824;28;20102;-68
2022/03/11 04:30:14;;;;;;;22.20;6.87;;;;;;;;;;5061941;28;20108;-68
2022/03/11 04:32:39;;;;;;;22.13;7.27;;;;;;;;;;5054324;28;20029;-68
2022/03/11 04:35:05;;;;;;;14.57;5.73;;;;;;;;;;5043683;28;20033;-68
2022/03/11 04:37:30;;;;;;;11.00;4.60;;;;;;;;;;5057902;28;20017;-68
2022/03/11 04:39:57;;;;;;;20.77;6.80;;;;;;;;;;5062116;28;20032;-68
2022/03/11 04:42:23;;;;;;;17.67;6.60;;;;;;;;;;5051783;28;20031;-68
2022/03/11 04:44:48;;;;;;;17.13;6.13;;;;;;;;;;5053540;28;20444;-68
2022/03/11 04:47:13;;;;;;;16.57;6.13;;;;;;;;;;5062121;28;20036;-68
2022/03/11 04:49:39;;;;;;;12.47;5.60;;;;;;;;;;5061089;28;20036;-68
2022/03/11 04:52:06;;;;;;;16.87;6.60;;;;;;;;;;5061920;28;20691;-67
2022/03/11 04:54:31;;;;;;;17.63;6.53;;;;;;;;;;5051948;28;20119;-67
2022/03/11 04:56:56;;;;;;;17.90;5.67;;;;;;;;;;5048598;28;20132;-68
2022/03/11 04:59:22;;;;;;;17.43;6.33;;;;;;;;;;5057987;28;20115;-68
2022/03/11 05:01:47;;;;;;;14.83;5.53;;;;;;;;;;5050647;28;20062;-68
2022/03/11 05:04:12;;;;;;;14.83;5.83;;;;;;;;;;5059396;28;20131;-68
2022/03/11 05:06:37;;;;;;;23.10;7.10;;;;;;;;;;5061979;28;20086;-68
2022/03/11 05:09:03;;;;;;;14.60;5.93;;;;;;;;;;5061165;28;20033;-68
2022/03/11 05:11:28;;;;;;;16.27;6.03;;;;;;;;;;5061714;28;20028;-68
2022/03/11 05:13:53;;;;;;;16.17;5.80;;;;;;;;;;5061306;28;20058;-68
2022/03/11 05:16:18;;;;;;;15.83;6.23;;;;;;;;;;5061728;28;20100;-68
2022/03/11 05:18:44;;;;;;;14.23;5.27;;;;;;;;;;5058581;28;20029;-68
2022/03/11 05:21:09;;;;;;;16.90;5.50;;;;;;;;;;5041751;28;20028;-68
2022/03/11 05:23:34;;;;;;;15.80;7.17;;;;;;;;;;5044375;28;20037;-68
2022/03/11 05:25:59;;;;;;;15.83;6.53;;;;;;;;;;5061756;28;20024;-68
2022/03/11 05:28:25;;;;;;;16.63;5.63;;;;;;;;;;5060212;28;20411;-68
2022/03/11 05:30:50;;;;;;;17.03;6.30;;;;;;;;;;5061675;28;20028;-68
2022/03/11 05:33:16;;;;;;;14.97;5.93;;;;;;;;;;5060868;28;20696;-68
2022/03/11 05:35:41;;;;;;;16.00;6.73;;;;;;;;;;5060749;28;20020;-68
2022/03/11 05:38:06;;;;;;;17.33;5.50;;;;;;;;;;5049067;28;20025;-68
2022/03/11 05:40:31;;;;;;;11.07;5.30;;;;;;;;;;5059322;28;20150;-68
2022/03/11 05:42:57;;;;;;;14.17;5.30;;;;;;;;;;5058447;28;20017;-68
2022/03/11 05:45:22;;;;;;;12.40;4.57;;;;;;;;;;5060545;28;20093;-68
2022/03/11 05:47:47;;;;;;;13.90;5.23;;;;;;;;;;5061094;28;20154;-68
2022/03/11 05:50:12;;;;;;;14.40;5.50;;;;;;;;;;5055498;28;20028;-68
2022/03/11 05:52:39;;;;;;;18.30;6.47;;;;;;;;;;5061192;28;20028;-70
2022/03/11 05:55:05;;;;;;;16.03;6.17;;;;;;;;;;5058774;28;20178;-68
2022/03/11 05:57:30;;;;;;;12.53;4.37;;;;;;;;;;5050604;28;20075;-68
2022/03/11 05:59:55;;;;;;;16.20;6.33;;;;;;;;;;5044323;28;20050;-68
2022/03/11 06:02:21;;;;;;;14.63;6.13;;;;;;;;;;5058134;28;20012;-68
2022/03/11 06:04:46;;;;;;;22.27;6.73;;;;;;;;;;5054169;28;20048;-68
2022/03/11 06:07:12;;;;;;;12.77;6.00;;;;;;;;;;5061049;28;20100;-68
2022/03/11 06:09:37;;;;;;;13.70;5.83;;;;;;;;;;5051363;28;20040;-68
2022/03/11 06:12:02;;;;;;;14.43;5.87;;;;;;;;;;5060508;28;20115;-68
2022/03/11 06:14:28;;;;;;;10.93;4.43;;;;;;;;;;5050207;28;20037;-68
2022/03/11 06:16:54;;;;;;;11.30;4.60;;;;;;;;;;5050434;28;20079;-68
2022/03/11 06:19:19;;;;;;;14.30;5.07;;;;;;;;;;5049343;28;20020;-68
2022/03/11 06:21:44;;;;;;;15.13;5.70;;;;;;;;;;5060583;28;20025;-68
2022/03/11 06:24:10;;;;;;;16.63;6.47;;;;;;;;;;5050497;28;20587;-68
2022/03/11 06:26:35;;;;;;;14.90;6.17;;;;;;;;;;5049654;28;20023;-68
2022/03/11 06:29:00;;;;;;;13.77;5.50;;;;;;;;;;5057606;28;20037;-68
2022/03/11 06:31:25;;;;;;;14.93;4.87;;;;;;;;;;5056262;28;20072;-68
2022/03/11 06:33:51;;;;;;;14.00;5.53;;;;;;;;;;5056540;28;20138;-68
2022/03/11 06:36:16;;;;;;;11.67;4.97;;;;;;;;;;5055740;28;20024;-68
2022/03/11 06:38:41;;;;;;;18.13;6.43;;;;;;;;;;5045865;28;20048;-68
2022/03/11 06:41:07;;;;;;;11.87;5.10;;;;;;;;;;5054782;28;20119;-68
2022/03/11 06:43:33;;;;;;;14.53;5.90;;;;;;;;;;5049836;28;20073;-68
2022/03/11 06:45:59;;;;;;;18.07;8.03;;;;;;;;;;5060709;28;20027;-68
2022/03/11 06:48:24;;;;;;;15.47;5.93;;;;;;;;;;5058987;28;20403;-68
2022/03/11 06:50:49;;;;;;;12.17;5.03;;;;;;;;;;5051923;28;20033;-68
2022/03/11 06:53:15;;;;;;;18.50;7.23;;;;;;;;;;5059969;28;20059;-68
2022/03/11 06:55:40;;;;;;;15.40;6.37;;;;;;;;;;5051471;28;20051;-68
2022/03/11 06:58:06;;;;;;;16.53;5.70;;;;;;;;;;5054140;28;20016;-68
2022/03/11 07:00:31;;;;;;;15.17;5.13;;;;;;;;;;5051767;28;20052;-68
2022/03/11 07:02:56;;;;;;;16.77;6.20;;;;;;;;;;5058391;28;20016;-68
2022/03/11 07:05:22;;;;;;;13.10;5.27;;;;;;;;;;5056108;28;20048;-68
2022/03/11 07:07:47;;;;;;;13.23;4.93;;;;;;;;;;5050936;28;20100;-68
2022/03/11 07:10:12;;;;;;;13.93;6.17;;;;;;;;;;5051233;28;20029;-68
2022/03/11 07:12:38;;;;;;;11.03;4.60;;;;;;;;;;5063253;28;20323;-68
2022/03/11 07:15:05;;;;;;;11.83;4.73;;;;;;;;;;5049867;28;20032;-68
2022/03/11 07:17:30;;;;;;;13.30;5.53;;;;;;;;;;5053222;28;20017;-68
2022/03/11 07:19:56;;;;;;;11.60;5.50;;;;;;;;;;5063371;28;20499;-68
2022/03/11 07:22:21;;;;;;;15.93;5.47;;;;;;;;;;5062861;28;20102;-68
2022/03/11 07:24:47;;;;;;;13.93;5.30;;;;;;;;;;5059348;28;20108;-68
2022/03/11 07:27:12;;;;;;;18.20;5.87;;;;;;;;;;5062583;28;20028;-68
2022/03/11 07:29:37;;;;;;;13.77;5.87;;;;;;;;;;5059661;28;20028;-68
2022/03/11 07:32:03;;;;;;;11.03;4.93;;;;;;;;;;5063853;28;20240;-68
2022/03/11 07:34:28;;;;;;;13.60;5.40;;;;;;;;;;5058474;28;20096;-68
2022/03/11 07:36:53;;;;;;;15.17;5.50;;;;;;;;;;5054226;28;20709;-68
2022/03/11 07:39:19;;;;;;;13.47;6.03;;;;;;;;;;5058776;28;20073;-69
2022/03/11 07:41:44;;;;;;;18.07;6.10;;;;;;;;;;5060266;28;20016;-69
2022/03/11 07:44:09;;;;;;;15.57;5.70;;;;;;;;;;5061264;28;20032;-68
2022/03/11 07:46:35;;;;;;;12.00;4.63;;;;;;;;;;5047436;28;20584;-68
2022/03/11 07:49:01;;;;;;;11.40;5.40;;;;;;;;;;5061491;28;20054;-68
2022/03/11 07:51:26;;;;;;;14.10;5.17;;;;;;;;;;5063027;28;20771;-68
2022/03/11 07:53:51;;;;;;;12.53;5.13;;;;;;;;;;5056391;28;20039;-69
2022/03/11 07:56:17;;;;;;;11.40;5.03;;;;;;;;;;5054818;28;20520;-68
2022/03/11 07:58:43;;;;;;;10.50;4.50;;;;;;;;;;5061027;28;20432;-69
2022/03/11 08:01:08;;;;;;;13.73;5.33;;;;;;;;;;5060946;28;20455;-69
2022/03/11 08:03:34;;;;;;;11.83;5.10;;;;;;;;;;5056716;28;20031;-68
2022/03/11 08:06:00;;;;;;;12.13;5.77;;;;;;;;;;5063143;28;20112;-68
2022/03/11 08:08:26;;;;;;;13.10;5.23;;;;;;;;;;5061663;28;20554;-69
2022/03/11 08:10:52;;;;;;;12.10;5.53;;;;;;;;;;5056260;28;20029;-68
2022/03/11 08:13:17;;;;;;;16.03;5.90;;;;;;;;;;5063115;28;20502;-69
2022/03/11 08:15:43;;;;;;;20.53;5.03;;;;;;;;;;5048752;28;20028;-70
2022/03/11 08:18:08;;;;;;;13.17;4.83;;;;;;;;;;5063273;28;20079;-68
2022/03/11 08:20:33;;;;;;;11.60;4.73;;;;;;;;;;5044927;28;20017;-68
2022/03/11 08:22:58;;;;;;;12.50;5.23;;;;;;;;;;5059861;28;20032;-68
2022/03/11 08:25:26;;;;;;;12.20;5.50;;;;;;;;;;5047499;28;20032;-68
2022/03/11 08:27:55;;;;;;;12.03;5.03;;;;;;;;;;5046190;28;20021;-69
2022/03/11 08:30:20;;;;;;;12.63;4.33;;;;;;;;;;5055988;28;20024;-69
2022/03/11 08:32:46;;;;;;;15.43;4.97;;;;;;;;;;5061647;28;20024;-69
2022/03/11 08:35:11;;;;;;;11.60;5.07;;;;;;;;;;5044606;28;20478;-69
2022/03/11 08:37:37;;;;;;;13.77;4.57;;;;;;;;;;5059874;28;20712;-68
2022/03/11 08:40:03;;;;;;;11.37;4.70;;;;;;;;;;5053337;28;20025;-69
2022/03/11 08:42:29;;;;;;;8.53;4.17;;;;;;;;;;5062078;28;20017;-69
2022/03/11 08:44:54;;;;;;;12.37;4.97;;;;;;;;;;5051229;28;20029;-69
2022/03/11 08:47:19;;;;;;;10.77;4.20;;;;;;;;;;5061214;28;20025;-69
2022/03/11 08:49:45;;;;;;;10.07;4.77;;;;;;;;;;5050309;28;20024;-68
2022/03/11 08:52:10;;;;;;;12.23;5.77;;;;;;;;;;5056136;28;20021;-69
2022/03/11 08:54:35;;;;;;;12.87;4.73;;;;;;;;;;5060266;28;20028;-69
2022/03/11 08:57:01;;;;;;;10.03;4.57;;;;;;;;;;5062713;28;20013;-68
2022/03/11 08:59:26;;;;;;;10.00;4.13;;;;;;;;;;5050863;28;20553;-68
2022/03/11 09:01:51;;;;;;;11.23;4.30;;;;;;;;;;5046833;28;20404;-69
2022/03/11 09:04:17;;;;;;;14.30;4.63;;;;;;;;;;5049941;28;20052;-69
2022/03/11 09:06:42;;;;;;;17.83;5.60;;;;;;;;;;5061486;28;20041;-69
2022/03/11 09:09:08;;;;;;;11.47;4.73;;;;;;;;;;5059445;28;20073;-69
2022/03/11 09:11:33;;;;;;;8.50;4.23;;;;;;;;;;5052749;28;20017;-69
2022/03/11 09:13:59;;;;;;;12.90;4.33;;;;;;;;;;5061561;28;20075;-69
2022/03/11 09:16:29;;;;;;;9.87;4.53;;;;;;;;;;5061384;28;20049;-69
2022/03/11 09:18:54;;;;;;;10.13;4.57;;;;;;;;;;5059569;28;20054;-68
2022/03/11 09:21:20;;;;;;;16.13;5.50;;;;;;;;;;5041845;28;20022;-68
2022/03/11 09:23:47;;;;;;;10.43;3.93;;;;;;;;;;5059934;28;20040;-68
2022/03/11 09:26:12;;;;;;;13.70;5.70;;;;;;;;;;5061097;28;20032;-69
2022/03/11 09:28:37;;;;;;;10.33;4.53;;;;;;;;;;5044041;28;20029;-69
2022/03/11 09:31:08;;;;;;;12.37;4.93;;;;;;;;;;5054074;28;20035;-68
2022/03/11 09:33:33;;;;;;;11.90;6.03;;;;;;;;;;5049811;28;20059;-68
2022/03/11 09:35:58;;;;;;;10.07;4.07;;;;;;;;;;5053472;28;20480;-68
2022/03/11 09:38:23;;;;;;;10.00;4.53;;;;;;;;;;5050215;28;20043;-68
2022/03/11 09:40:50;;;;;;;14.73;4.57;;;;;;;;;;5066000;28;20032;-69
2022/03/11 09:43:16;;;;;;;9.97;4.03;;;;;;;;;;5061735;28;20020;-68
2022/03/11 09:45:42;;;;;;;12.13;4.73;;;;;;;;;;5057983;28;20024;-68
2022/03/11 09:48:07;;;;;;;11.77;4.43;;;;;;;;;;5058079;28;20028;-68
2022/03/11 09:50:33;;;;;;;10.93;4.63;;;;;;;;;;5045686;28;20079;-68
2022/03/11 09:52:59;;;;;;;10.77;4.30;;;;;;;;;;5043288;28;20030;-68
2022/03/11 09:55:24;;;;;;;8.37;3.83;;;;;;;;;;5056415;28;20029;-68
2022/03/11 09:57:49;;;;;;;11.33;5.00;;;;;;;;;;5038610;28;20020;-68
2022/03/11 10:00:15;;;;;;;10.30;3.67;;;;;;;;;;5047941;28;20256;-68
2022/03/11 10:02:42;;;;;;;10.50;3.80;;;;;;;;;;5060168;28;20103;-68
2022/03/11 10:05:07;;;;;;;9.67;3.57;;;;;;;;;;5048708;28;20073;-68
2022/03/11 10:07:32;;;;;;;13.27;4.30;;;;;;;;;;5040787;28;20389;-68
2022/03/11 10:10:10;;;;;;;9.70;4.13;;;;;;;;;;5036687;28;20025;-68
2022/03/11 10:12:40;;;;;;;8.23;3.90;;;;;;;;;;5038415;28;20457;-68
2022/03/11 10:15:05;;;;;;;11.23;4.60;;;;;;;;;;5034798;28;20031;-68
2022/03/11 10:17:38;;;;;;;10.23;4.57;;;;;;;;;;5024310;28;20033;-68
2022/03/11 10:20:09;;;;;;;9.40;4.10;;;;;;;;;;5035312;28;20214;-68
2022/03/11 10:22:35;;;;;;;8.02;3.72;;;;;;;;;;5041085;28;20128;-68
2022/03/11 10:25:05;;;;;;;8.13;3.63;;;;;;;;;;5039814;28;20580;-68
2022/03/11 10:27:30;;;;;;;10.80;4.47;;;;;;;;;;5038948;28;20029;-68
2022/03/11 10:30:01;;;;;;;10.63;4.33;;;;;;;;;;5040604;28;20047;-68
2022/03/11 10:32:26;;;;;;;8.03;3.70;;;;;;;;;;5040702;28;20036;-68
2022/03/11 10:34:51;;;;;;;10.57;4.37;;;;;;;;;;5040349;28;20032;-68
2022/03/11 10:37:16;;;;;;;12.83;4.20;;;;;;;;;;5037339;28;20036;-68
2022/03/11 10:39:42;;;;;;;9.93;4.17;;;;;;;;;;5039885;28;20056;-68
2022/03/11 10:42:27;;;;;;;10.43;3.80;;;;;;;;;;5042045;28;20060;-68
2022/03/11 10:45:13;;;;;;;10.53;3.67;;;;;;;;;;5048898;28;20846;-68
2022/03/11 10:47:39;;;;;;;13.37;5.30;;;;;;;;;;5043500;28;20068;-68
2022/03/11 10:50:09;;;;;;;11.03;4.07;;;;;;;;;;5041038;28;20621;-68
2022/03/11 10:52:40;;;;;;;12.13;4.67;;;;;;;;;;5044240;28;20025;-68
2022/03/11 10:55:16;;;;;;;12.13;4.90;;;;;;;;;;5044178;28;20506;-68
2022/03/11 10:57:42;;;;;;;12.43;4.87;;;;;;;;;;5044484;28;20025;-68
2022/03/11 11:00:16;;;;;;;9.07;4.17;;;;;;;;;;5025192;28;20025;-68
2022/03/11 11:02:42;;;;;;;11.43;4.10;;;;;;;;;;5043296;28;20477;-68
2022/03/11 11:05:09;;;;;;;9.60;3.33;;;;;;;;;;5057436;28;20540;-68
2022/03/11 11:07:34;;;;;;;7.67;3.47;;;;;;;;;;5046156;28;20055;-68
2022/03/11 11:10:00;;;;;;;8.17;3.60;;;;;;;;;;5047785;28;20087;-68
2022/03/11 11:12:25;;;;;;;11.90;4.70;;;;;;;;;;5044036;28;20013;-68
2022/03/11 11:14:51;;;;;;;9.20;3.80;;;;;;;;;;5056408;28;20020;-68
2022/03/11 11:17:16;;;;;;;8.67;4.20;;;;;;;;;;5063633;28;20016;-68
2022/03/11 11:19:43;;;;;;;8.00;3.50;;;;;;;;;;5063050;28;20021;-68
2022/03/11 11:22:08;;;;;;;9.17;3.97;;;;;;;;;;5056031;28;20112;-68
2022/03/11 11:24:35;;;;;;;7.37;3.03;;;;;;;;;;5053845;28;20079;-69
2022/03/11 11:27:01;;;;;;;8.97;4.03;;;;;;;;;;5063925;28;20029;-68
2022/03/11 11:29:29;;;;;;;10.13;3.40;;;;;;;;;;5063529;28;20116;-68
2022/03/11 11:31:54;;;;;;;19.40;4.50;;;;;;;;;;5058116;28;20028;-69
2022/03/11 11:34:37;;;;;;;8.70;3.57;;;;;;;;;;5065572;28;20838;-68
2022/03/11 11:37:03;;;;;;;7.53;3.27;;;;;;;;;;5063775;28;20036;-68
2022/03/11 11:39:39;;;;;;;6.60;2.70;;;;;;;;;;5051063;28;20067;-68
2022/03/11 11:42:12;;;;;;;13.03;4.33;;;;;;;;;;5061659;28;20408;-68
2022/03/11 11:44:38;;;;;;;14.30;4.17;;;;;;;;;;5063122;28;20028;-68
2022/03/11 11:47:17;;;;;;;8.03;3.30;;;;;;;;;;5063556;28;20783;-68
2022/03/11 11:49:43;;;;;;;12.30;4.30;;;;;;;;;;5063040;28;20150;-68
2022/03/11 11:52:11;;;;;;;13.87;4.50;;;;;;;;;;5062550;28;20024;-68
2022/03/11 11:54:38;;;;;;;10.27;3.77;;;;;;;;;;5062000;28;20430;-68
2022/03/11 11:57:05;;;;;;;12.70;3.50;;;;;;;;;;5063661;28;20391;-68
2022/03/11 11:59:37;;;;;;;8.93;4.03;;;;;;;;;;5060470;28;20016;-68
2022/03/11 12:02:02;;;;;;;;;;;;;;;;;;5063695;28;20078;-69
2022/03/11 12:04:29;;;;;;;8.23;3.63;;;;;;;;;;5064130;28;20288;-68
2022/03/11 12:06:56;;;;;;;13.13;3.60;;;;;;;;;;5063510;28;20020;-68
2022/03/11 12:09:45;;;;;;;8.43;3.00;;;;;;;;;;5063011;28;20242;-68
2022/03/11 12:12:24;;;;;;;12.87;4.33;;;;;;;;;;5061170;28;20028;-68
2022/03/11 12:14:59;;;;;;;9.13;3.67;;;;;;;;;;5055330;28;20064;-68
2022/03/11 12:17:42;;;;;;;9.67;3.77;;;;;;;;;;5053660;28;20657;-68
2022/03/11 12:20:26;;;;;;;12.57;3.47;;;;;;;;;;5048545;28;20112;-68
2022/03/11 12:22:53;;;;;;;12.43;3.90;;;;;;;;;;5063947;28;20020;-68
2022/03/11 12:25:22;;;;;;;8.97;3.47;;;;;;;;;;5062321;28;20094;-68
2022/03/11 12:28:00;;;;;;;13.50;4.60;;;;;;;;;;5062276;28;20021;-68
2022/03/11 12:30:30;;;;;;;8.13;3.40;;;;;;;;;;5062246;28;20074;-68
2022/03/11 12:32:58;;;;;;;9.77;3.80;;;;;;;;;;5062109;28;20052;-68
2022/03/11 12:35:23;;;;;;;9.67;3.93;;;;;;;;;;5062100;28;20096;-68
2022/03/11 12:37:49;;;;;;;8.50;3.60;;;;;;;;;;5059860;28;20435;-68
2022/03/11 12:40:14;;;;;;;7.30;3.20;;;;;;;;;;5058014;28;20028;-68
2022/03/11 12:42:40;;;;;;;9.97;3.83;;;;;;;;;;5061980;28;20008;-68
2022/03/11 12:45:06;;;;;;;9.77;3.53;;;;;;;;;;5062269;28;20028;-68
2022/03/11 12:47:37;;;;;;;8.43;3.80;;;;;;;;;;5062043;28;20599;-69
2022/03/11 12:50:07;;;;;;;8.68;3.45;;;;;;;;;;5056826;28;20094;-69
2022/03/11 12:52:39;;;;;;;8.47;3.67;;;;;;;;;;5061818;28;20039;-69
2022/03/11 12:55:20;;;;;;;8.37;3.50;;;;;;;;;;5062174;28;20527;-70
2022/03/11 12:57:50;;;;;;;7.43;3.30;;;;;;;;;;5062352;28;20036;-70
2022/03/11 13:00:22;;;;;;;10.77;3.77;;;;;;;;;;5054970;28;20274;-70
2022/03/11 13:02:47;;;;;;;;;;;;;;;;;;5062502;28;20056;-70
2022/03/11 13:05:26;;;;;;;9.47;3.67;;;;;;;;;;5038518;28;19923;-70
2022/03/11 13:07:52;;;;;;;8.07;3.30;;;;;;;;;;5042403;28;20168;-70
2022/03/11 13:10:23;;;;;;;7.83;3.50;;;;;;;;;;5034517;28;20021;-69
2022/03/11 13:12:52;;;;;;;11.60;3.80;;;;;;;;;;5044025;28;20029;-70
2022/03/11 13:15:27;;;;;;;10.23;3.70;;;;;;;;;;5041043;28;20043;-70
2022/03/11 13:18:01;;;;;;;8.60;3.03;;;;;;;;;;5041880;28;20176;-69
2022/03/11 13:20:27;;;;;;;7.67;3.40;;;;;;;;;;5040167;28;20021;-69
2022/03/11 13:22:53;;;;;;;8.07;3.50;;;;;;;;;;5051042;28;20033;-69
2022/03/11 13:25:28;;;;;;;11.47;4.87;;;;;;;;;;5039973;28;20500;-69
2022/03/11 13:27:54;;;;;;;6.87;2.97;;;;;;;;;;5041375;28;20025;-69
2022/03/11 13:30:35;;;;;;;9.40;3.27;;;;;;;;;;5040561;28;20104;-69
2022/03/11 13:33:16;;;;;;;7.60;3.30;;;;;;;;;;5042047;28;20025;-69
2022/03/11 13:35:43;;;;;;;9.50;3.17;;;;;;;;;;5028283;28;20396;-69
2022/03/11 13:38:08;;;;;;;5.83;2.87;;;;;;;;;;5048530;28;20052;-70
2022/03/11 13:40:33;;;;;;;7.27;3.07;;;;;;;;;;5040340;28;20562;-70
2022/03/11 13:43:00;;;;;;;10.97;3.60;;;;;;;;;;5043891;28;20101;-72
2022/03/11 13:45:29;;;;;;;10.97;3.80;;;;;;;;;;5036944;28;20021;-68
2022/03/11 13:48:05;;;;;;;9.70;3.80;;;;;;;;;;5038322;28;20029;-70
2022/03/11 13:50:30;;;;;;;8.03;3.50;;;;;;;;;;5045037;28;20498;-70
2022/03/11 13:52:57;;;;;;;9.97;3.33;;;;;;;;;;5041513;28;20025;-67
2022/03/11 13:55:32;;;;;;;8.17;3.10;;;;;;;;;;5040408;28;20489;-70
2022/03/11 13:58:11;;;;;;;9.43;3.70;;;;;;;;;;5041269;28;20017;-70
2022/03/11 14:00:37;;;;;;;8.63;3.07;;;;;;;;;;5047866;28;20100;-68
2022/03/11 14:03:11;;;;;;;13.03;4.10;;;;;;;;;;5047395;28;20097;-68
2022/03/11 14:05:40;;;;;;;7.47;2.93;;;;;;;;;;5056852;28;20131;-68
2022/03/11 14:08:05;;;;;;;8.03;3.07;;;;;;;;;;5061332;28;20056;-68
2022/03/11 14:10:38;;;;;;;8.30;3.27;;;;;;;;;;5050948;28;20056;-68
2022/03/11 14:13:04;;;;;;;9.17;3.50;;;;;;;;;;5043701;28;20025;-68
2022/03/11 14:15:33;;;;;;;10.67;3.63;;;;;;;;;;5057855;28;20028;-68
2022/03/11 14:17:59;;;;;;;10.07;3.57;;;;;;;;;;5063118;28;20079;-67
2022/03/11 14:20:24;;;;;;;9.70;3.97;;;;;;;;;;5058922;28;20024;-70
2022/03/11 14:22:50;;;;;;;5.93;3.23;;;;;;;;;;5067231;28;20024;-70
2022/03/11 14:25:15;;;;;;;16.80;4.13;;;;;;;;;;5066104;28;20590;-70
2022/03/11 14:27:40;;;;;;;12.80;5.07;;;;;;;;;;5066576;28;20043;-67
2022/03/11 14:30:07;;;;;;;30.57;14.47;;;;;;;;;;5067400;28;20059;-68